createdAt,value
2023-03-28T00:01:20.155Z,1014.89
2023-03-28T00:04:20.207Z,1014.88
2023-03-28T00:07:20.161Z,1014.94
2023-03-28T00:10:20.166Z,1014.96
2023-03-28T00:13:20.195Z,1014.99
2023-03-28T00:16:20.237Z,1015.01
2023-03-28T00:19:20.149Z,1015.06
2023-03-28T00:22:20.152Z,1015.1
2023-03-28T00:25:20.202Z,1015.12
2023-03-28T00:28:20.152Z,1015.16
2023-03-28T00:31:20.146Z,1015.18
2023-03-28T00:34:20.134Z,1015.22
2023-03-28T00:37:20.139Z,1015.23
2023-03-28T00:40:20.153Z,1015.28
2023-03-28T00:43:20.145Z,1015.31
2023-03-28T00:46:20.174Z,1015.32
2023-03-28T00:49:20.152Z,1015.31
2023-03-28T00:52:20.145Z,1015.35
2023-03-28T00:55:20.153Z,1015.38
2023-03-28T00:58:20.144Z,1015.39
2023-03-28T01:01:20.171Z,1015.38
2023-03-28T01:04:20.157Z,1015.43
2023-03-28T01:07:20.136Z,1015.42
2023-03-28T01:10:20.144Z,1015.46
2023-03-28T01:13:20.146Z,1015.47
2023-03-28T01:16:20.202Z,1015.4
2023-03-28T01:19:20.135Z,1015.42
2023-03-28T01:22:20.145Z,1015.46
2023-03-28T01:25:20.134Z,1015.46
2023-03-28T01:28:20.139Z,1015.49
2023-03-28T01:31:20.151Z,1015.49
2023-03-28T01:34:20.162Z,1015.44
2023-03-28T01:37:20.135Z,1015.46
2023-03-28T01:40:20.128Z,1015.48
2023-03-28T01:43:20.168Z,1015.43
2023-03-28T01:46:20.210Z,1015.47
2023-03-28T01:49:20.132Z,1015.48
2023-03-28T01:52:20.127Z,1015.44
2023-03-28T01:55:20.137Z,1015.44
2023-03-28T01:58:20.128Z,1015.51
2023-03-28T02:01:20.199Z,1015.53
2023-03-28T02:04:21.177Z,1015.57
2023-03-28T02:07:20.127Z,1015.64
2023-03-28T02:10:20.119Z,1015.69
2023-03-28T02:13:20.128Z,1015.71
2023-03-28T02:16:20.199Z,1015.69
2023-03-28T02:19:20.132Z,1015.62
2023-03-28T02:22:20.136Z,1015.58
2023-03-28T02:25:20.145Z,1015.56
2023-03-28T02:28:20.136Z,1015.55
2023-03-28T02:31:20.152Z,1015.56
2023-03-28T02:34:20.153Z,1015.53
2023-03-28T02:37:20.128Z,1015.54
2023-03-28T02:40:20.132Z,1015.53
2023-03-28T02:43:20.127Z,1015.47
2023-03-28T02:46:20.139Z,1015.46
2023-03-28T02:49:20.129Z,1015.47
2023-03-28T02:52:20.122Z,1015.44
2023-03-28T02:55:20.118Z,1015.46
2023-03-28T02:58:20.150Z,1015.45
2023-03-28T03:01:20.146Z,1015.44
2023-03-28T03:04:20.115Z,1015.4
2023-03-28T03:07:20.121Z,1015.38
2023-03-28T03:10:20.155Z,1015.41
2023-03-28T03:13:20.128Z,1015.43
2023-03-28T03:16:20.133Z,1015.44
2023-03-28T03:19:20.115Z,1015.42
2023-03-28T03:22:20.625Z,1015.41
2023-03-28T03:25:20.115Z,1015.37
2023-03-28T03:28:20.116Z,1015.39
2023-03-28T03:31:20.203Z,1015.38
2023-03-28T03:34:20.102Z,1015.36
2023-03-28T03:37:20.105Z,1015.38
2023-03-28T03:40:20.110Z,1015.36
2023-03-28T03:43:20.105Z,1015.4
2023-03-28T03:46:20.126Z,1015.44
2023-03-28T03:49:20.109Z,1015.48
2023-03-28T03:52:20.103Z,1015.41
2023-03-28T03:55:20.111Z,1015.42
2023-03-28T03:58:20.340Z,1015.48
2023-03-28T04:01:20.103Z,1015.48
2023-03-28T04:04:20.101Z,1015.48
2023-03-28T04:07:20.099Z,1015.47
2023-03-28T04:10:20.110Z,1015.52
2023-03-28T04:13:20.093Z,1015.52
2023-03-28T04:16:20.099Z,1015.54
2023-03-28T04:19:20.093Z,1015.64
2023-03-28T04:22:20.094Z,1015.7
2023-03-28T04:25:20.095Z,1015.79
2023-03-28T04:28:20.097Z,1015.8
2023-03-28T04:31:20.123Z,1015.83
2023-03-28T04:34:20.119Z,1015.86
2023-03-28T04:37:20.096Z,1015.89
2023-03-28T04:40:20.120Z,1015.94
2023-03-28T04:43:20.090Z,1015.95
2023-03-28T04:46:20.154Z,1015.93
2023-03-28T04:49:20.091Z,1015.98
2023-03-28T04:52:20.087Z,1016.01
2023-03-28T04:55:20.112Z,1015.96
2023-03-28T04:58:20.100Z,1016
2023-03-28T05:01:20.119Z,1016.05
2023-03-28T05:04:20.121Z,1016.08
2023-03-28T05:07:20.087Z,1016.09
2023-03-28T05:10:20.124Z,1016.18
2023-03-28T05:13:20.088Z,1016.2
2023-03-28T05:16:20.104Z,1016.27
2023-03-28T05:19:20.083Z,1016.36
2023-03-28T05:22:20.092Z,1016.39
2023-03-28T05:25:20.108Z,1016.36
2023-03-28T05:28:20.100Z,1016.33
2023-03-28T05:31:20.124Z,1016.36
2023-03-28T05:34:20.082Z,1016.42
2023-03-28T05:37:20.089Z,1016.47
2023-03-28T05:40:20.093Z,1016.48
2023-03-28T05:43:20.093Z,1016.52
2023-03-28T05:46:20.258Z,1016.56
2023-03-28T05:49:20.094Z,1016.63
2023-03-28T05:52:20.094Z,1016.6
2023-03-28T05:55:20.087Z,1016.59
2023-03-28T05:58:20.112Z,1016.61
2023-03-28T06:01:20.093Z,1016.62
2023-03-28T06:04:20.094Z,1016.63
2023-03-28T06:07:25.566Z,1016.64
2023-03-28T06:10:20.081Z,1016.61
2023-03-28T06:13:20.092Z,1016.65
2023-03-28T06:16:20.111Z,1016.67
2023-03-28T06:19:20.101Z,1016.74
2023-03-28T06:22:20.130Z,1016.75
2023-03-28T06:25:20.103Z,1016.77
2023-03-28T06:28:20.084Z,1016.78
2023-03-28T06:31:20.205Z,1016.77
2023-03-28T06:34:20.126Z,1016.8
2023-03-28T06:37:20.079Z,1016.79
2023-03-28T06:40:20.084Z,1016.77
2023-03-28T06:43:20.088Z,1016.78
2023-03-28T06:46:20.101Z,1016.79
2023-03-28T06:49:20.093Z,1016.79
2023-03-28T06:52:20.091Z,1016.83
2023-03-28T06:55:20.076Z,1016.86
2023-03-28T06:58:20.073Z,1016.92
2023-03-28T07:01:20.086Z,1016.95
2023-03-28T07:04:20.074Z,1016.98
2023-03-28T07:07:20.078Z,1016.96
2023-03-28T07:10:20.063Z,1016.98
2023-03-28T07:13:20.071Z,1017
2023-03-28T07:16:20.077Z,1016.98
2023-03-28T07:19:20.070Z,1017
2023-03-28T07:22:20.072Z,1016.96
2023-03-28T07:25:20.060Z,1017
2023-03-28T07:28:20.062Z,1017.04
2023-03-28T07:31:20.088Z,1017.08
2023-03-28T07:34:20.146Z,1017.16
2023-03-28T07:37:20.071Z,1017.22
2023-03-28T07:40:20.058Z,1017.27
2023-03-28T07:43:20.063Z,1017.22
2023-03-28T07:46:20.106Z,1017.22
2023-03-28T07:49:20.056Z,1017.28
2023-03-28T07:52:20.049Z,1017.27
2023-03-28T07:55:20.049Z,1017.25
2023-03-28T07:58:20.058Z,1017.23
2023-03-28T08:01:20.042Z,1017.25
2023-03-28T08:04:20.041Z,1017.3
2023-03-28T08:07:25.049Z,1017.31
2023-03-28T08:10:20.057Z,1017.33
2023-03-28T08:13:20.055Z,1017.31
2023-03-28T08:16:20.105Z,1017.34
2023-03-28T08:19:20.052Z,1017.37
2023-03-28T08:22:20.046Z,1017.39
2023-03-28T08:25:20.043Z,1017.42
2023-03-28T08:28:20.065Z,1017.41
2023-03-28T08:31:20.073Z,1017.37
2023-03-28T08:34:20.054Z,1017.39
2023-03-28T08:37:20.058Z,1017.44
2023-03-28T08:40:20.049Z,1017.45
2023-03-28T08:43:20.051Z,1017.46
2023-03-28T08:46:20.136Z,1017.46
2023-03-28T08:49:20.050Z,1017.46
2023-03-28T08:52:20.047Z,1017.37
2023-03-28T08:55:20.054Z,1017.37
2023-03-28T08:58:20.053Z,1017.39
2023-03-28T09:01:20.075Z,1017.36
2023-03-28T09:04:20.109Z,1017.36
2023-03-28T09:07:20.036Z,1017.35
2023-03-28T09:10:20.152Z,1017.34
2023-03-28T09:13:20.043Z,1017.38
2023-03-28T09:16:20.152Z,1017.36
2023-03-28T09:19:20.039Z,1017.31
2023-03-28T09:22:20.046Z,1017.38
2023-03-28T09:25:20.059Z,1017.4
2023-03-28T09:28:20.031Z,1017.42
2023-03-28T09:31:20.038Z,1017.4
2023-03-28T09:34:20.028Z,1017.39
2023-03-28T09:37:20.028Z,1017.37
2023-03-28T09:40:20.049Z,1017.35
2023-03-28T09:43:20.031Z,1017.34
2023-03-28T09:46:20.099Z,1017.34
2023-03-28T09:49:20.042Z,1017.31
2023-03-28T09:52:20.020Z,1017.29
2023-03-28T09:55:20.012Z,1017.29
2023-03-28T09:58:20.022Z,1017.21
2023-03-28T10:01:20.029Z,1017.16
2023-03-28T10:04:20.044Z,1017.17
2023-03-28T10:07:20.243Z,1017.16
2023-03-28T10:10:20.021Z,1017.11
2023-03-28T10:13:20.010Z,1017.11
2023-03-28T10:16:20.029Z,1017.1
2023-03-28T10:19:20.011Z,1017.13
2023-03-28T10:22:20.009Z,1017.08
2023-03-28T10:25:20.012Z,1017.01
2023-03-28T10:28:20.025Z,1016.97
2023-03-28T10:31:20.065Z,1016.99
2023-03-28T10:34:20.000Z,1017
2023-03-28T10:37:20.008Z,1017.04
2023-03-28T10:40:20.162Z,1016.95
2023-03-28T10:43:20.009Z,1016.98
2023-03-28T10:46:20.022Z,1016.97
2023-03-28T10:49:19.997Z,1016.98
2023-03-28T10:52:19.990Z,1017.02
2023-03-28T10:55:20.010Z,1017.02
2023-03-28T10:58:19.995Z,1017.03
2023-03-28T11:01:20.005Z,1017
2023-03-28T11:04:19.991Z,1016.97
2023-03-28T11:07:19.992Z,1016.91
2023-03-28T11:10:20.012Z,1016.88
2023-03-28T11:13:19.993Z,1016.93
2023-03-28T11:16:20.004Z,1016.86
2023-03-28T11:19:19.997Z,1016.84
2023-03-28T11:22:20.049Z,1016.82
2023-03-28T11:25:19.996Z,1016.79
2023-03-28T11:28:20.020Z,1016.74
2023-03-28T11:31:20.026Z,1016.68
2023-03-28T11:34:20.036Z,1016.68
2023-03-28T11:37:20.016Z,1016.59
2023-03-28T11:40:20.009Z,1016.52
2023-03-28T11:43:20.000Z,1016.46
2023-03-28T11:46:19.999Z,1016.45
2023-03-28T11:49:19.999Z,1016.46
2023-03-28T11:52:20.006Z,1016.45
2023-03-28T11:55:20.000Z,1016.39
2023-03-28T11:58:19.994Z,1016.39
2023-03-28T12:01:20.001Z,1016.29
2023-03-28T12:04:20.009Z,1016.32
2023-03-28T12:07:19.990Z,1016.32
2023-03-28T12:10:20.065Z,1016.27
2023-03-28T12:13:20.018Z,1016.25
2023-03-28T12:16:20.005Z,1016.12
2023-03-28T12:19:19.997Z,1016.06
2023-03-28T12:22:20.009Z,1016.03
2023-03-28T12:25:19.995Z,1015.91
2023-03-28T12:28:20.023Z,1015.85
2023-03-28T12:31:20.064Z,1015.79
2023-03-28T12:34:19.991Z,1015.86
2023-03-28T12:37:19.981Z,1015.77
2023-03-28T12:40:19.990Z,1015.77
2023-03-28T12:43:19.987Z,1015.76
2023-03-28T12:46:20.135Z,1015.74
2023-03-28T12:49:19.991Z,1015.71
2023-03-28T12:52:19.972Z,1015.64
2023-03-28T12:55:19.980Z,1015.65
2023-03-28T12:58:19.971Z,1015.64
2023-03-28T13:01:20.011Z,1015.58
2023-03-28T13:04:19.998Z,1015.6
2023-03-28T13:07:19.982Z,1015.67
2023-03-28T13:10:19.985Z,1015.49
2023-03-28T13:13:19.998Z,1015.46
2023-03-28T13:16:20.033Z,1015.42
2023-03-28T13:19:20.058Z,1015.36
2023-03-28T13:22:19.973Z,1015.3
2023-03-28T13:25:19.972Z,1015.24
2023-03-28T13:28:19.972Z,1015.26
2023-03-28T13:31:20.010Z,1015.2
2023-03-28T13:34:19.988Z,1015.17
2023-03-28T13:37:22.792Z,1015.12
2023-03-28T13:40:19.980Z,1015.04
2023-03-28T13:43:19.965Z,1014.97
2023-03-28T13:46:20.011Z,1014.83
2023-03-28T13:49:19.980Z,1014.88
2023-03-28T13:52:19.969Z,1014.82
2023-03-28T13:55:19.970Z,1014.76
2023-03-28T13:58:19.966Z,1014.75
2023-03-28T14:01:20.004Z,1014.66
2023-03-28T14:04:19.949Z,1014.62
2023-03-28T14:07:19.968Z,1014.56
2023-03-28T14:10:19.965Z,1014.49
2023-03-28T14:13:19.967Z,1014.42
2023-03-28T14:16:20.024Z,1014.41
2023-03-28T14:19:21.729Z,1014.33
2023-03-28T14:22:19.958Z,1014.31
2023-03-28T14:25:19.971Z,1014.29
2023-03-28T14:28:19.970Z,1014.22
2023-03-28T14:31:19.980Z,1014.22
2023-03-28T14:34:19.962Z,1014.24
2023-03-28T14:37:19.950Z,1014.24
2023-03-28T14:40:19.966Z,1014.18
2023-03-28T14:43:19.961Z,1014.12
2023-03-28T14:46:20.008Z,1014.13
2023-03-28T14:49:19.949Z,1014.13
2023-03-28T14:52:19.936Z,1014.11
2023-03-28T14:55:19.974Z,1014.06
2023-03-28T14:58:19.936Z,1014.01
2023-03-28T15:01:20.122Z,1013.96
2023-03-28T15:04:19.959Z,1013.94
2023-03-28T15:07:19.962Z,1013.88
2023-03-28T15:10:19.956Z,1013.86
2023-03-28T15:13:21.453Z,1013.74
2023-03-28T15:16:19.982Z,1013.7
2023-03-28T15:19:19.947Z,1013.61
2023-03-28T15:22:19.938Z,1013.59
2023-03-28T15:25:19.948Z,1013.57
2023-03-28T15:28:19.937Z,1013.5
2023-03-28T15:31:19.997Z,1013.45
2023-03-28T15:34:20.206Z,1013.37
2023-03-28T15:37:19.922Z,1013.36
2023-03-28T15:40:19.968Z,1013.35
2023-03-28T15:43:19.927Z,1013.29
2023-03-28T15:46:20.003Z,1013.19
2023-03-28T15:49:19.929Z,1013.16
2023-03-28T15:52:19.919Z,1013.09
2023-03-28T15:55:19.933Z,1013.07
2023-03-28T15:58:19.920Z,1013.06
2023-03-28T16:01:19.977Z,1013.01
2023-03-28T16:04:19.918Z,1012.97
2023-03-28T16:07:19.917Z,1012.99
2023-03-28T16:10:19.938Z,1012.96
2023-03-28T16:13:19.924Z,1012.96
2023-03-28T16:16:19.931Z,1012.9
2023-03-28T16:19:19.917Z,1012.86
2023-03-28T16:22:19.916Z,1012.76
2023-03-28T16:25:19.925Z,1012.74
2023-03-28T16:28:19.981Z,1012.7
2023-03-28T16:31:20.125Z,1012.68
2023-03-28T16:34:19.914Z,1012.71
2023-03-28T16:37:19.897Z,1012.69
2023-03-28T16:40:19.907Z,1012.59
2023-03-28T16:43:19.899Z,1012.57
2023-03-28T16:46:19.931Z,1012.48
2023-03-28T16:49:19.916Z,1012.48
2023-03-28T16:52:19.892Z,1012.43
2023-03-28T16:55:19.905Z,1012.33
2023-03-28T16:58:19.895Z,1012.29
2023-03-28T17:01:19.975Z,1012.26
2023-03-28T17:04:19.902Z,1012.19
2023-03-28T17:07:19.907Z,1012.12
2023-03-28T17:10:19.907Z,1012.08
2023-03-28T17:13:19.918Z,1012.09
2023-03-28T17:16:19.970Z,1012.08
2023-03-28T17:19:19.981Z,1012.02
2023-03-28T17:22:19.895Z,1011.94
2023-03-28T17:25:19.891Z,1011.89
2023-03-28T17:28:19.897Z,1011.83
2023-03-28T17:31:19.935Z,1011.83
2023-03-28T17:34:19.920Z,1011.75
2023-03-28T17:37:19.903Z,1011.76
2023-03-28T17:40:19.888Z,1011.73
2023-03-28T17:43:19.890Z,1011.79
2023-03-28T17:46:20.021Z,1011.76
2023-03-28T17:49:19.879Z,1011.73
2023-03-28T17:52:19.890Z,1011.77
2023-03-28T17:55:19.889Z,1011.8
2023-03-28T17:58:19.908Z,1011.75
2023-03-28T18:01:19.932Z,1011.73
2023-03-28T18:04:19.885Z,1011.78
2023-03-28T18:07:19.878Z,1011.77
2023-03-28T18:10:19.885Z,1011.75
2023-03-28T18:13:19.875Z,1011.77
2023-03-28T18:16:19.901Z,1011.79
2023-03-28T18:19:19.881Z,1011.75
2023-03-28T18:22:19.876Z,1011.71
2023-03-28T18:25:19.885Z,1011.72
2023-03-28T18:28:19.881Z,1011.71
2023-03-28T18:31:20.014Z,1011.68
2023-03-28T18:34:19.904Z,1011.65
2023-03-28T18:37:19.894Z,1011.67
2023-03-28T18:40:19.897Z,1011.72
2023-03-28T18:43:19.891Z,1011.71
2023-03-28T18:46:19.959Z,1011.67
2023-03-28T18:49:19.924Z,1011.7
2023-03-28T18:52:19.893Z,1011.66
2023-03-28T18:55:19.886Z,1011.62
2023-03-28T18:58:19.890Z,1011.61
2023-03-28T19:01:19.929Z,1011.59
2023-03-28T19:04:20.040Z,1011.58
2023-03-28T19:07:19.883Z,1011.61
2023-03-28T19:10:19.900Z,1011.58
2023-03-28T19:13:19.930Z,1011.57
2023-03-28T19:16:20.010Z,1011.57
2023-03-28T19:19:20.133Z,1011.55
2023-03-28T19:22:19.893Z,1011.55
2023-03-28T19:25:19.876Z,1011.56
2023-03-28T19:28:19.884Z,1011.53
2023-03-28T19:31:19.898Z,1011.51
2023-03-28T19:34:19.875Z,1011.44
2023-03-28T19:37:19.893Z,1011.4
2023-03-28T19:40:19.910Z,1011.36
2023-03-28T19:43:19.889Z,1011.26
2023-03-28T19:46:19.916Z,1011.31
2023-03-28T19:49:19.877Z,1011.33
2023-03-28T19:52:19.880Z,1011.36
2023-03-28T19:55:19.870Z,1011.41
2023-03-28T19:58:19.879Z,1011.38
2023-03-28T20:01:19.904Z,1011.39
2023-03-28T20:04:19.898Z,1011.39
2023-03-28T20:07:19.865Z,1011.37
2023-03-28T20:10:19.871Z,1011.38
2023-03-28T20:13:19.891Z,1011.4
2023-03-28T20:16:19.914Z,1011.36
2023-03-28T20:19:19.880Z,1011.39
2023-03-28T20:22:19.888Z,1011.42
2023-03-28T20:25:19.883Z,1011.43
2023-03-28T20:28:19.873Z,1011.49
2023-03-28T20:31:19.922Z,1011.46
2023-03-28T20:34:19.860Z,1011.47
2023-03-28T20:37:19.876Z,1011.44
2023-03-28T20:40:19.866Z,1011.4
2023-03-28T20:43:19.863Z,1011.36
2023-03-28T20:46:20.015Z,1011.34
2023-03-28T20:49:19.860Z,1011.33
2023-03-28T20:52:19.860Z,1011.34
2023-03-28T20:55:19.923Z,1011.38
2023-03-28T20:58:19.857Z,1011.39
2023-03-28T21:01:19.890Z,1011.33
2023-03-28T21:04:19.945Z,1011.28
2023-03-28T21:07:19.864Z,1011.33
2023-03-28T21:10:19.859Z,1011.3
2023-03-28T21:13:21.777Z,1011.24
2023-03-28T21:16:19.890Z,1011.11
2023-03-28T21:19:19.839Z,1011.02
2023-03-28T21:22:19.843Z,1011
2023-03-28T21:25:19.855Z,1010.92
2023-03-28T21:28:19.845Z,1010.86
2023-03-28T21:31:19.894Z,1010.84
2023-03-28T21:34:19.842Z,1010.74
2023-03-28T21:37:19.835Z,1010.7
2023-03-28T21:40:19.826Z,1010.67
2023-03-28T21:43:19.841Z,1010.71
2023-03-28T21:46:19.851Z,1010.75
2023-03-28T21:49:19.838Z,1010.77
2023-03-28T21:52:19.833Z,1010.67
2023-03-28T21:55:19.844Z,1010.66
2023-03-28T21:58:19.834Z,1010.77
2023-03-28T22:01:19.841Z,1010.73
2023-03-28T22:04:19.834Z,1010.72
2023-03-28T22:07:19.833Z,1010.73
2023-03-28T22:10:19.830Z,1010.73
2023-03-28T22:13:19.831Z,1010.66
2023-03-28T22:16:19.970Z,1010.66
2023-03-28T22:19:19.832Z,1010.69
2023-03-28T22:22:19.828Z,1010.69
2023-03-28T22:25:19.832Z,1010.69
2023-03-28T22:28:19.824Z,1010.65
2023-03-28T22:31:19.847Z,1010.63
2023-03-28T22:34:19.818Z,1010.51
2023-03-28T22:37:19.818Z,1010.38
2023-03-28T22:40:19.808Z,1010.33
2023-03-28T22:43:19.830Z,1010.33
2023-03-28T22:46:19.844Z,1010.38
2023-03-28T22:49:19.816Z,1010.37
2023-03-28T22:52:19.825Z,1010.44
2023-03-28T22:55:19.810Z,1010.4
2023-03-28T22:58:19.813Z,1010.4
2023-03-28T23:01:19.865Z,1010.39
2023-03-28T23:04:19.818Z,1010.35
2023-03-28T23:07:19.820Z,1010.31
2023-03-28T23:10:19.801Z,1010.37
2023-03-28T23:13:19.812Z,1010.32
2023-03-28T23:16:19.902Z,1010.26
2023-03-28T23:19:19.807Z,1010.3
2023-03-28T23:22:19.807Z,1010.29
2023-03-28T23:25:19.811Z,1010.27
2023-03-28T23:28:20.355Z,1010.23
2023-03-28T23:31:19.843Z,1010.23
2023-03-28T23:34:19.794Z,1010.24
2023-03-28T23:37:19.805Z,1010.16
2023-03-28T23:40:19.826Z,1010.09
2023-03-28T23:43:19.811Z,1010.01
2023-03-28T23:46:19.926Z,1010
2023-03-28T23:49:19.807Z,1009.89
2023-03-28T23:52:19.802Z,1009.82
2023-03-28T23:55:19.823Z,1009.84
2023-03-28T23:58:19.797Z,1009.84
